sensor_id;sensor_type;location;lat;lon;timestamp;P1;durP1;ratioP1;P2;durP2;ratioP2
3975;SDS011;2002;48.812;9.180;2023-07-08T00:01:53;2.87;;;2.23;;
3975;SDS011;2002;48.812;9.180;2023-07-08T00:04:19;4.90;;;2.40;;
3975;SDS011;2002;48.812;9.180;2023-07-08T00:06:44;3.27;;;2.43;;
3975;SDS011;2002;48.812;9.180;2023-07-08T00:09:10;4.37;;;3.00;;
3975;SDS011;2002;48.812;9.180;2023-07-08T00:11:37;8.97;;;2.07;;
3975;SDS011;2002;48.812;9.180;2023-07-08T00:14:02;5.27;;;2.00;;
3975;SDS011;2002;48.812;9.180;2023-07-08T00:16:28;4.60;;;2.63;;
3975;SDS011;2002;48.812;9.180;2023-07-08T00:18:53;3.37;;;2.30;;
3975;SDS011;2002;48.812;9.180;2023-07-08T00:21:19;3.60;;;1.63;;
3975;SDS011;2002;48.812;9.180;2023-07-08T00:23:48;4.60;;;1.80;;
3975;SDS011;2002;48.812;9.180;2023-07-08T00:26:16;5.70;;;2.17;;
3975;SDS011;2002;48.812;9.180;2023-07-08T00:28:47;3.73;;;1.60;;
3975;SDS011;2002;48.812;9.180;2023-07-08T00:31:13;4.43;;;1.70;;
3975;SDS011;2002;48.812;9.180;2023-07-08T00:33:39;6.20;;;2.63;;
3975;SDS011;2002;48.812;9.180;2023-07-08T00:36:11;4.47;;;2.20;;
3975;SDS011;2002;48.812;9.180;2023-07-08T00:38:39;4.10;;;1.90;;
3975;SDS011;2002;48.812;9.180;2023-07-08T00:41:11;5.20;;;2.47;;
3975;SDS011;2002;48.812;9.180;2023-07-08T00:43:53;5.63;;;1.90;;
3975;SDS011;2002;48.812;9.180;2023-07-08T00:48:53;9.73;;;3.97;;
3975;SDS011;2002;48.812;9.180;2023-07-08T00:51:20;5.40;;;1.87;;
3975;SDS011;2002;48.812;9.180;2023-07-08T00:53:48;10.20;;;1.93;;
3975;SDS011;2002;48.812;9.180;2023-07-08T00:56:18;7.17;;;2.97;;
3975;SDS011;2002;48.812;9.180;2023-07-08T01:01:32;6.10;;;2.50;;
3975;SDS011;2002;48.812;9.180;2023-07-08T01:04:06;5.00;;;2.63;;
3975;SDS011;2002;48.812;9.180;2023-07-08T01:06:36;4.43;;;2.10;;
3975;SDS011;2002;48.812;9.180;2023-07-08T01:09:06;4.47;;;2.03;;
3975;SDS011;2002;48.812;9.180;2023-07-08T01:11:35;3.30;;;1.70;;
3975;SDS011;2002;48.812;9.180;2023-07-08T01:14:02;7.00;;;2.40;;
3975;SDS011;2002;48.812;9.180;2023-07-08T01:16:32;5.30;;;2.20;;
3975;SDS011;2002;48.812;9.180;2023-07-08T01:18:58;6.77;;;2.30;;
3975;SDS011;2002;48.812;9.180;2023-07-08T01:21:27;2.90;;;1.70;;
3975;SDS011;2002;48.812;9.180;2023-07-08T01:24:02;6.50;;;2.37;;
3975;SDS011;2002;48.812;9.180;2023-07-08T01:26:33;6.17;;;2.43;;
3975;SDS011;2002;48.812;9.180;2023-07-08T01:29:02;5.40;;;2.40;;
3975;SDS011;2002;48.812;9.180;2023-07-08T01:31:28;4.70;;;2.30;;
3975;SDS011;2002;48.812;9.180;2023-07-08T01:33:54;4.53;;;1.80;;
3975;SDS011;2002;48.812;9.180;2023-07-08T01:36:20;2.10;;;1.80;;
3975;SDS011;2002;48.812;9.180;2023-07-08T01:38:46;4.30;;;1.40;;
3975;SDS011;2002;48.812;9.180;2023-07-08T01:41:12;5.27;;;2.43;;
3975;SDS011;2002;48.812;9.180;2023-07-08T01:43:40;6.03;;;2.80;;
3975;SDS011;2002;48.812;9.180;2023-07-08T01:46:08;5.17;;;2.30;;
3975;SDS011;2002;48.812;9.180;2023-07-08T01:48:41;4.77;;;1.40;;
3975;SDS011;2002;48.812;9.180;2023-07-08T01:51:12;2.30;;;1.50;;
3975;SDS011;2002;48.812;9.180;2023-07-08T01:53:39;5.20;;;2.20;;
3975;SDS011;2002;48.812;9.180;2023-07-08T01:56:06;6.33;;;1.67;;
3975;SDS011;2002;48.812;9.180;2023-07-08T01:58:32;3.57;;;1.70;;
3975;SDS011;2002;48.812;9.180;2023-07-08T02:00:58;3.30;;;1.80;;
3975;SDS011;2002;48.812;9.180;2023-07-08T02:03:24;5.77;;;2.40;;
3975;SDS011;2002;48.812;9.180;2023-07-08T02:05:51;3.33;;;2.30;;
3975;SDS011;2002;48.812;9.180;2023-07-08T02:08:16;3.33;;;1.93;;
3975;SDS011;2002;48.812;9.180;2023-07-08T02:10:42;5.70;;;2.30;;
3975;SDS011;2002;48.812;9.180;2023-07-08T02:13:09;3.20;;;1.90;;
3975;SDS011;2002;48.812;9.180;2023-07-08T02:15:34;6.73;;;1.60;;
3975;SDS011;2002;48.812;9.180;2023-07-08T02:18:00;4.47;;;2.13;;
3975;SDS011;2002;48.812;9.180;2023-07-08T02:20:25;3.30;;;2.10;;
3975;SDS011;2002;48.812;9.180;2023-07-08T02:22:51;5.37;;;1.90;;
3975;SDS011;2002;48.812;9.180;2023-07-08T02:25:17;4.57;;;2.10;;
3975;SDS011;2002;48.812;9.180;2023-07-08T02:27:42;5.60;;;2.37;;
3975;SDS011;2002;48.812;9.180;2023-07-08T02:30:08;7.43;;;2.33;;
3975;SDS011;2002;48.812;9.180;2023-07-08T02:32:34;4.40;;;1.40;;
3975;SDS011;2002;48.812;9.180;2023-07-08T02:35:04;2.43;;;1.63;;
3975;SDS011;2002;48.812;9.180;2023-07-08T02:37:30;3.30;;;1.40;;
3975;SDS011;2002;48.812;9.180;2023-07-08T02:39:57;6.73;;;2.03;;
3975;SDS011;2002;48.812;9.180;2023-07-08T02:42:23;3.97;;;1.60;;
3975;SDS011;2002;48.812;9.180;2023-07-08T02:44:48;6.57;;;2.20;;
3975;SDS011;2002;48.812;9.180;2023-07-08T02:47:14;3.63;;;1.80;;
3975;SDS011;2002;48.812;9.180;2023-07-08T02:49:39;6.43;;;1.90;;
3975;SDS011;2002;48.812;9.180;2023-07-08T02:52:05;3.80;;;1.80;;
3975;SDS011;2002;48.812;9.180;2023-07-08T02:54:31;5.53;;;2.07;;
3975;SDS011;2002;48.812;9.180;2023-07-08T02:56:56;6.47;;;1.80;;
3975;SDS011;2002;48.812;9.180;2023-07-08T02:59:22;3.97;;;1.67;;
3975;SDS011;2002;48.812;9.180;2023-07-08T03:01:47;3.97;;;2.10;;
3975;SDS011;2002;48.812;9.180;2023-07-08T03:04:15;4.50;;;2.77;;
3975;SDS011;2002;48.812;9.180;2023-07-08T03:06:41;7.70;;;2.80;;
3975;SDS011;2002;48.812;9.180;2023-07-08T03:09:08;4.63;;;2.40;;
3975;SDS011;2002;48.812;9.180;2023-07-08T03:11:34;6.03;;;1.60;;
3975;SDS011;2002;48.812;9.180;2023-07-08T03:14:00;5.17;;;1.80;;
3975;SDS011;2002;48.812;9.180;2023-07-08T03:16:26;4.27;;;2.10;;
3975;SDS011;2002;48.812;9.180;2023-07-08T03:18:52;4.77;;;2.00;;
3975;SDS011;2002;48.812;9.180;2023-07-08T03:21:17;7.00;;;1.63;;
3975;SDS011;2002;48.812;9.180;2023-07-08T03:23:43;10.07;;;2.07;;
3975;SDS011;2002;48.812;9.180;2023-07-08T03:26:19;3.17;;;1.87;;
3975;SDS011;2002;48.812;9.180;2023-07-08T03:28:49;4.53;;;1.83;;
3975;SDS011;2002;48.812;9.180;2023-07-08T03:31:15;1.63;;;1.43;;
3975;SDS011;2002;48.812;9.180;2023-07-08T03:33:41;6.73;;;1.80;;
3975;SDS011;2002;48.812;9.180;2023-07-08T03:36:14;3.00;;;1.77;;
3975;SDS011;2002;48.812;9.180;2023-07-08T03:38:48;7.93;;;2.57;;
3975;SDS011;2002;48.812;9.180;2023-07-08T03:41:14;4.30;;;1.90;;
3975;SDS011;2002;48.812;9.180;2023-07-08T03:43:40;3.27;;;1.87;;
3975;SDS011;2002;48.812;9.180;2023-07-08T03:46:07;2.97;;;1.63;;
3975;SDS011;2002;48.812;9.180;2023-07-08T03:48:36;5.87;;;1.63;;
3975;SDS011;2002;48.812;9.180;2023-07-08T03:51:03;4.03;;;1.67;;
3975;SDS011;2002;48.812;9.180;2023-07-08T03:53:28;3.73;;;1.63;;
3975;SDS011;2002;48.812;9.180;2023-07-08T03:55:54;1.77;;;1.50;;
3975;SDS011;2002;48.812;9.180;2023-07-08T03:58:19;4.60;;;2.87;;
3975;SDS011;2002;48.812;9.180;2023-07-08T04:00:45;7.43;;;1.90;;
3975;SDS011;2002;48.812;9.180;2023-07-08T04:03:11;3.23;;;1.50;;
3975;SDS011;2002;48.812;9.180;2023-07-08T04:05:36;4.57;;;2.00;;
3975;SDS011;2002;48.812;9.180;2023-07-08T04:08:02;5.80;;;1.90;;
3975;SDS011;2002;48.812;9.180;2023-07-08T04:10:27;6.17;;;1.60;;
3975;SDS011;2002;48.812;9.180;2023-07-08T04:12:53;8.87;;;3.53;;
3975;SDS011;2002;48.812;9.180;2023-07-08T04:15:18;11.93;;;2.70;;
3975;SDS011;2002;48.812;9.180;2023-07-08T04:17:45;9.90;;;2.67;;
3975;SDS011;2002;48.812;9.180;2023-07-08T04:20:14;9.93;;;2.63;;
3975;SDS011;2002;48.812;9.180;2023-07-08T04:22:41;13.27;;;3.10;;
3975;SDS011;2002;48.812;9.180;2023-07-08T04:25:06;7.97;;;2.17;;
3975;SDS011;2002;48.812;9.180;2023-07-08T04:27:32;9.00;;;2.40;;
3975;SDS011;2002;48.812;9.180;2023-07-08T04:29:58;6.00;;;2.27;;
3975;SDS011;2002;48.812;9.180;2023-07-08T04:32:23;6.47;;;2.37;;
3975;SDS011;2002;48.812;9.180;2023-07-08T04:34:50;12.47;;;4.43;;
3975;SDS011;2002;48.812;9.180;2023-07-08T04:37:16;8.90;;;3.10;;
3975;SDS011;2002;48.812;9.180;2023-07-08T04:39:42;10.57;;;3.77;;
3975;SDS011;2002;48.812;9.180;2023-07-08T04:42:08;40.60;;;5.73;;
3975;SDS011;2002;48.812;9.180;2023-07-08T04:44:33;12.10;;;2.70;;
3975;SDS011;2002;48.812;9.180;2023-07-08T04:46:59;10.73;;;3.50;;
3975;SDS011;2002;48.812;9.180;2023-07-08T04:49:25;18.30;;;3.50;;
3975;SDS011;2002;48.812;9.180;2023-07-08T04:51:53;24.53;;;5.47;;
3975;SDS011;2002;48.812;9.180;2023-07-08T04:54:18;23.90;;;4.90;;
3975;SDS011;2002;48.812;9.180;2023-07-08T04:56:45;19.77;;;4.60;;
3975;SDS011;2002;48.812;9.180;2023-07-08T04:59:15;29.77;;;6.17;;
3975;SDS011;2002;48.812;9.180;2023-07-08T05:01:43;16.63;;;5.10;;
3975;SDS011;2002;48.812;9.180;2023-07-08T05:04:09;34.40;;;4.03;;
3975;SDS011;2002;48.812;9.180;2023-07-08T05:06:37;19.57;;;3.37;;
3975;SDS011;2002;48.812;9.180;2023-07-08T05:09:03;7.70;;;2.47;;
3975;SDS011;2002;48.812;9.180;2023-07-08T05:11:29;15.67;;;2.60;;
3975;SDS011;2002;48.812;9.180;2023-07-08T05:13:55;15.43;;;2.60;;
3975;SDS011;2002;48.812;9.180;2023-07-08T05:16:20;10.33;;;2.77;;
3975;SDS011;2002;48.812;9.180;2023-07-08T05:18:46;5.73;;;2.00;;
3975;SDS011;2002;48.812;9.180;2023-07-08T05:21:12;13.30;;;2.67;;
3975;SDS011;2002;48.812;9.180;2023-07-08T05:23:38;15.00;;;4.10;;
3975;SDS011;2002;48.812;9.180;2023-07-08T05:26:04;13.13;;;3.30;;
3975;SDS011;2002;48.812;9.180;2023-07-08T05:28:32;14.17;;;2.63;;
3975;SDS011;2002;48.812;9.180;2023-07-08T05:30:58;11.03;;;2.13;;
3975;SDS011;2002;48.812;9.180;2023-07-08T05:33:24;5.20;;;2.00;;
3975;SDS011;2002;48.812;9.180;2023-07-08T05:35:51;6.10;;;1.90;;
3975;SDS011;2002;48.812;9.180;2023-07-08T05:38:17;7.53;;;2.27;;
3975;SDS011;2002;48.812;9.180;2023-07-08T05:40:43;4.60;;;1.63;;
3975;SDS011;2002;48.812;9.180;2023-07-08T05:43:12;6.50;;;1.57;;
3975;SDS011;2002;48.812;9.180;2023-07-08T05:45:38;4.40;;;2.40;;
3975;SDS011;2002;48.812;9.180;2023-07-08T05:48:04;4.80;;;1.83;;
3975;SDS011;2002;48.812;9.180;2023-07-08T05:50:29;5.60;;;2.93;;
3975;SDS011;2002;48.812;9.180;2023-07-08T05:52:55;4.00;;;1.60;;
3975;SDS011;2002;48.812;9.180;2023-07-08T05:55:20;2.67;;;1.53;;
3975;SDS011;2002;48.812;9.180;2023-07-08T05:57:46;3.97;;;1.73;;
3975;SDS011;2002;48.812;9.180;2023-07-08T06:00:12;3.13;;;1.90;;
3975;SDS011;2002;48.812;9.180;2023-07-08T06:02:37;4.07;;;1.50;;
3975;SDS011;2002;48.812;9.180;2023-07-08T06:05:03;3.00;;;1.87;;
3975;SDS011;2002;48.812;9.180;2023-07-08T06:07:29;3.13;;;1.27;;
3975;SDS011;2002;48.812;9.180;2023-07-08T06:09:54;3.23;;;1.53;;
3975;SDS011;2002;48.812;9.180;2023-07-08T06:12:23;4.50;;;2.43;;
3975;SDS011;2002;48.812;9.180;2023-07-08T06:14:49;14.43;;;2.73;;
3975;SDS011;2002;48.812;9.180;2023-07-08T06:17:15;13.43;;;2.50;;
3975;SDS011;2002;48.812;9.180;2023-07-08T06:19:41;3.90;;;2.13;;
3975;SDS011;2002;48.812;9.180;2023-07-08T06:22:07;7.77;;;2.80;;
3975;SDS011;2002;48.812;9.180;2023-07-08T06:24:32;5.20;;;2.43;;
3975;SDS011;2002;48.812;9.180;2023-07-08T06:26:58;6.80;;;2.33;;
3975;SDS011;2002;48.812;9.180;2023-07-08T06:29:23;7.43;;;2.10;;
3975;SDS011;2002;48.812;9.180;2023-07-08T06:31:49;10.30;;;3.27;;
3975;SDS011;2002;48.812;9.180;2023-07-08T06:34:15;9.50;;;3.27;;
3975;SDS011;2002;48.812;9.180;2023-07-08T06:36:40;14.07;;;3.23;;
3975;SDS011;2002;48.812;9.180;2023-07-08T06:39:06;6.37;;;3.10;;
3975;SDS011;2002;48.812;9.180;2023-07-08T06:41:33;8.73;;;2.53;;
3975;SDS011;2002;48.812;9.180;2023-07-08T06:43:59;7.80;;;2.50;;
3975;SDS011;2002;48.812;9.180;2023-07-08T06:46:25;10.17;;;2.87;;
3975;SDS011;2002;48.812;9.180;2023-07-08T06:48:50;4.93;;;2.63;;
3975;SDS011;2002;48.812;9.180;2023-07-08T06:51:16;6.77;;;2.80;;
3975;SDS011;2002;48.812;9.180;2023-07-08T06:53:41;11.43;;;3.13;;
3975;SDS011;2002;48.812;9.180;2023-07-08T06:56:07;7.53;;;3.03;;
3975;SDS011;2002;48.812;9.180;2023-07-08T06:58:33;8.27;;;3.20;;
3975;SDS011;2002;48.812;9.180;2023-07-08T07:00:59;9.77;;;3.00;;
3975;SDS011;2002;48.812;9.180;2023-07-08T07:03:24;18.93;;;4.43;;
3975;SDS011;2002;48.812;9.180;2023-07-08T07:05:50;6.23;;;2.60;;
3975;SDS011;2002;48.812;9.180;2023-07-08T07:08:16;3.90;;;2.47;;
3975;SDS011;2002;48.812;9.180;2023-07-08T07:10:41;10.87;;;3.77;;
3975;SDS011;2002;48.812;9.180;2023-07-08T07:13:07;5.80;;;2.90;;
3975;SDS011;2002;48.812;9.180;2023-07-08T07:15:33;6.70;;;3.10;;
3975;SDS011;2002;48.812;9.180;2023-07-08T07:17:59;6.33;;;2.87;;
3975;SDS011;2002;48.812;9.180;2023-07-08T07:20:24;6.60;;;2.73;;
3975;SDS011;2002;48.812;9.180;2023-07-08T07:22:50;4.50;;;3.20;;
3975;SDS011;2002;48.812;9.180;2023-07-08T07:25:16;5.40;;;2.53;;
3975;SDS011;2002;48.812;9.180;2023-07-08T07:27:43;5.43;;;3.83;;
3975;SDS011;2002;48.812;9.180;2023-07-08T07:30:08;6.17;;;2.97;;
3975;SDS011;2002;48.812;9.180;2023-07-08T07:32:37;7.37;;;2.70;;
3975;SDS011;2002;48.812;9.180;2023-07-08T07:35:04;5.90;;;2.93;;
3975;SDS011;2002;48.812;9.180;2023-07-08T07:37:30;6.40;;;3.00;;
3975;SDS011;2002;48.812;9.180;2023-07-08T07:39:56;5.30;;;2.90;;
3975;SDS011;2002;48.812;9.180;2023-07-08T07:42:21;4.43;;;2.67;;
3975;SDS011;2002;48.812;9.180;2023-07-08T07:44:47;3.77;;;3.27;;
3975;SDS011;2002;48.812;9.180;2023-07-08T07:47:12;3.50;;;2.40;;
3975;SDS011;2002;48.812;9.180;2023-07-08T07:49:39;3.73;;;3.03;;
3975;SDS011;2002;48.812;9.180;2023-07-08T07:52:05;5.10;;;2.83;;
3975;SDS011;2002;48.812;9.180;2023-07-08T07:54:31;4.93;;;2.80;;
3975;SDS011;2002;48.812;9.180;2023-07-08T07:56:56;6.63;;;2.50;;
3975;SDS011;2002;48.812;9.180;2023-07-08T07:59:22;4.30;;;2.70;;
3975;SDS011;2002;48.812;9.180;2023-07-08T08:01:48;4.67;;;2.57;;
3975;SDS011;2002;48.812;9.180;2023-07-08T08:04:13;6.87;;;2.70;;
3975;SDS011;2002;48.812;9.180;2023-07-08T08:06:39;3.70;;;2.10;;
3975;SDS011;2002;48.812;9.180;2023-07-08T08:09:04;4.00;;;2.50;;
3975;SDS011;2002;48.812;9.180;2023-07-08T08:11:30;4.83;;;2.00;;
3975;SDS011;2002;48.812;9.180;2023-07-08T08:13:56;5.43;;;2.60;;
3975;SDS011;2002;48.812;9.180;2023-07-08T08:16:22;2.87;;;2.03;;
3975;SDS011;2002;48.812;9.180;2023-07-08T08:18:48;6.73;;;2.50;;
3975;SDS011;2002;48.812;9.180;2023-07-08T08:21:13;5.03;;;2.47;;
3975;SDS011;2002;48.812;9.180;2023-07-08T08:23:40;4.77;;;3.00;;
3975;SDS011;2002;48.812;9.180;2023-07-08T08:26:05;4.43;;;3.20;;
3975;SDS011;2002;48.812;9.180;2023-07-08T08:28:31;5.13;;;2.90;;
3975;SDS011;2002;48.812;9.180;2023-07-08T08:30:56;8.23;;;2.70;;
3975;SDS011;2002;48.812;9.180;2023-07-08T08:33:22;4.70;;;2.43;;
3975;SDS011;2002;48.812;9.180;2023-07-08T08:35:47;4.27;;;3.00;;
3975;SDS011;2002;48.812;9.180;2023-07-08T08:38:13;4.60;;;2.20;;
3975;SDS011;2002;48.812;9.180;2023-07-08T08:40:39;3.97;;;2.37;;
3975;SDS011;2002;48.812;9.180;2023-07-08T08:43:09;6.10;;;2.87;;
3975;SDS011;2002;48.812;9.180;2023-07-08T08:45:58;3.67;;;2.90;;
3975;SDS011;2002;48.812;9.180;2023-07-08T08:48:29;7.57;;;3.30;;
3975;SDS011;2002;48.812;9.180;2023-07-08T08:51:00;6.03;;;3.33;;
3975;SDS011;2002;48.812;9.180;2023-07-08T08:53:33;11.50;;;4.37;;
3975;SDS011;2002;48.812;9.180;2023-07-08T08:56:05;10.90;;;3.90;;
3975;SDS011;2002;48.812;9.180;2023-07-08T08:58:43;7.13;;;4.00;;
3975;SDS011;2002;48.812;9.180;2023-07-08T09:01:12;6.70;;;4.00;;
3975;SDS011;2002;48.812;9.180;2023-07-08T09:03:55;9.13;;;4.90;;
3975;SDS011;2002;48.812;9.180;2023-07-08T09:06:26;7.00;;;3.73;;
3975;SDS011;2002;48.812;9.180;2023-07-08T09:08:57;6.00;;;3.63;;
3975;SDS011;2002;48.812;9.180;2023-07-08T09:11:36;8.90;;;4.83;;
3975;SDS011;2002;48.812;9.180;2023-07-08T09:23:11;5.73;;;3.57;;
3975;SDS011;2002;48.812;9.180;2023-07-08T09:25:47;6.57;;;4.20;;
3975;SDS011;2002;48.812;9.180;2023-07-08T09:28:17;4.47;;;3.57;;
3975;SDS011;2002;48.812;9.180;2023-07-08T09:30:47;6.03;;;3.67;;
3975;SDS011;2002;48.812;9.180;2023-07-08T09:33:17;4.67;;;3.67;;
3975;SDS011;2002;48.812;9.180;2023-07-08T09:35:44;6.20;;;3.87;;
3975;SDS011;2002;48.812;9.180;2023-07-08T09:38:21;6.80;;;3.77;;
3975;SDS011;2002;48.812;9.180;2023-07-08T09:40:48;8.23;;;3.67;;
3975;SDS011;2002;48.812;9.180;2023-07-08T09:45:51;6.97;;;3.10;;
3975;SDS011;2002;48.812;9.180;2023-07-08T09:48:21;6.37;;;4.10;;
3975;SDS011;2002;48.812;9.180;2023-07-08T09:50:51;4.83;;;3.33;;
3975;SDS011;2002;48.812;9.180;2023-07-08T09:53:18;6.63;;;3.70;;
3975;SDS011;2002;48.812;9.180;2023-07-08T09:55:44;4.00;;;3.20;;
3975;SDS011;2002;48.812;9.180;2023-07-08T09:58:21;5.30;;;3.77;;
3975;SDS011;2002;48.812;9.180;2023-07-08T10:01:00;5.27;;;3.90;;
3975;SDS011;2002;48.812;9.180;2023-07-08T10:03:31;7.40;;;4.97;;
3975;SDS011;2002;48.812;9.180;2023-07-08T10:06:02;5.13;;;3.57;;
3975;SDS011;2002;48.812;9.180;2023-07-08T10:08:37;4.10;;;3.40;;
3975;SDS011;2002;48.812;9.180;2023-07-08T10:11:12;5.00;;;3.50;;
3975;SDS011;2002;48.812;9.180;2023-07-08T10:16:52;4.23;;;3.40;;
3975;SDS011;2002;48.812;9.180;2023-07-08T10:19:18;4.90;;;3.37;;
3975;SDS011;2002;48.812;9.180;2023-07-08T10:27:07;5.27;;;3.43;;
3975;SDS011;2002;48.812;9.180;2023-07-08T10:29:44;5.07;;;3.23;;
3975;SDS011;2002;48.812;9.180;2023-07-08T10:32:21;5.17;;;3.10;;
3975;SDS011;2002;48.812;9.180;2023-07-08T10:35:13;5.73;;;3.50;;
3975;SDS011;2002;48.812;9.180;2023-07-08T10:40:54;3.70;;;3.13;;
3975;SDS011;2002;48.812;9.180;2023-07-08T10:43:43;3.80;;;3.00;;
3975;SDS011;2002;48.812;9.180;2023-07-08T10:46:38;3.50;;;3.10;;
3975;SDS011;2002;48.812;9.180;2023-07-08T10:54:48;4.40;;;2.93;;
3975;SDS011;2002;48.812;9.180;2023-07-08T10:57:54;4.40;;;3.10;;
3975;SDS011;2002;48.812;9.180;2023-07-08T11:00:43;7.77;;;2.43;;
3975;SDS011;2002;48.812;9.180;2023-07-08T11:06:20;3.83;;;2.70;;
3975;SDS011;2002;48.812;9.180;2023-07-08T11:08:53;4.67;;;2.53;;
3975;SDS011;2002;48.812;9.180;2023-07-08T11:11:29;5.83;;;2.60;;
3975;SDS011;2002;48.812;9.180;2023-07-08T11:19:42;2.20;;;1.93;;
3975;SDS011;2002;48.812;9.180;2023-07-08T11:22:32;4.17;;;2.40;;
3975;SDS011;2002;48.812;9.180;2023-07-08T11:25:01;3.10;;;2.63;;
3975;SDS011;2002;48.812;9.180;2023-07-08T11:27:32;2.73;;;1.93;;
3975;SDS011;2002;48.812;9.180;2023-07-08T11:30:23;3.10;;;2.80;;
3975;SDS011;2002;48.812;9.180;2023-07-08T11:32:52;3.30;;;2.97;;
3975;SDS011;2002;48.812;9.180;2023-07-08T11:35:34;2.70;;;2.50;;
3975;SDS011;2002;48.812;9.180;2023-07-08T11:38:04;2.70;;;2.30;;
3975;SDS011;2002;48.812;9.180;2023-07-08T11:40:31;4.20;;;2.47;;
3975;SDS011;2002;48.812;9.180;2023-07-08T11:43:03;3.33;;;3.03;;
3975;SDS011;2002;48.812;9.180;2023-07-08T11:45:34;3.20;;;2.20;;
3975;SDS011;2002;48.812;9.180;2023-07-08T11:48:13;2.93;;;2.03;;
3975;SDS011;2002;48.812;9.180;2023-07-08T11:50:43;2.53;;;1.90;;
3975;SDS011;2002;48.812;9.180;2023-07-08T11:53:12;3.73;;;1.80;;
3975;SDS011;2002;48.812;9.180;2023-07-08T11:55:56;7.20;;;2.10;;
3975;SDS011;2002;48.812;9.180;2023-07-08T11:58:57;2.50;;;1.77;;
3975;SDS011;2002;48.812;9.180;2023-07-08T12:02:13;5.07;;;2.27;;
3975;SDS011;2002;48.812;9.180;2023-07-08T12:04:33;2.30;;;1.87;;
3975;SDS011;2002;48.812;9.180;2023-07-08T12:07:06;3.60;;;2.43;;
3975;SDS011;2002;48.812;9.180;2023-07-08T12:09:47;2.90;;;2.10;;
3975;SDS011;2002;48.812;9.180;2023-07-08T12:12:17;4.00;;;2.27;;
3975;SDS011;2002;48.812;9.180;2023-07-08T12:14:50;3.33;;;2.50;;
3975;SDS011;2002;48.812;9.180;2023-07-08T12:17:18;2.97;;;1.80;;
3975;SDS011;2002;48.812;9.180;2023-07-08T12:19:44;2.63;;;1.90;;
3975;SDS011;2002;48.812;9.180;2023-07-08T12:22:12;2.83;;;2.53;;
3975;SDS011;2002;48.812;9.180;2023-07-08T12:24:39;1.97;;;1.60;;
3975;SDS011;2002;48.812;9.180;2023-07-08T12:27:05;2.60;;;1.63;;
3975;SDS011;2002;48.812;9.180;2023-07-08T12:29:33;2.57;;;1.70;;
3975;SDS011;2002;48.812;9.180;2023-07-08T12:31:58;3.40;;;2.10;;
3975;SDS011;2002;48.812;9.180;2023-07-08T12:34:25;3.73;;;1.87;;
3975;SDS011;2002;48.812;9.180;2023-07-08T12:36:51;4.87;;;1.77;;
3975;SDS011;2002;48.812;9.180;2023-07-08T12:39:18;2.10;;;1.50;;
3975;SDS011;2002;48.812;9.180;2023-07-08T12:41:44;2.10;;;1.87;;
3975;SDS011;2002;48.812;9.180;2023-07-08T12:44:15;2.13;;;1.77;;
3975;SDS011;2002;48.812;9.180;2023-07-08T12:46:47;2.00;;;1.60;;
3975;SDS011;2002;48.812;9.180;2023-07-08T12:49:14;2.77;;;1.97;;
3975;SDS011;2002;48.812;9.180;2023-07-08T12:51:41;2.30;;;1.77;;
3975;SDS011;2002;48.812;9.180;2023-07-08T12:54:08;3.03;;;1.77;;
3975;SDS011;2002;48.812;9.180;2023-07-08T12:56:35;4.00;;;2.00;;
3975;SDS011;2002;48.812;9.180;2023-07-08T12:59:01;2.77;;;1.93;;
3975;SDS011;2002;48.812;9.180;2023-07-08T13:01:28;1.77;;;1.40;;
3975;SDS011;2002;48.812;9.180;2023-07-08T13:03:59;1.93;;;1.40;;
3975;SDS011;2002;48.812;9.180;2023-07-08T13:06:31;2.20;;;1.53;;
3975;SDS011;2002;48.812;9.180;2023-07-08T13:09:07;1.90;;;1.70;;
3975;SDS011;2002;48.812;9.180;2023-07-08T13:11:40;2.50;;;1.60;;
3975;SDS011;2002;48.812;9.180;2023-07-08T13:14:07;2.97;;;1.60;;
3975;SDS011;2002;48.812;9.180;2023-07-08T13:16:33;2.20;;;1.50;;
3975;SDS011;2002;48.812;9.180;2023-07-08T13:19:00;4.07;;;1.60;;
3975;SDS011;2002;48.812;9.180;2023-07-08T13:21:26;2.90;;;1.60;;
3975;SDS011;2002;48.812;9.180;2023-07-08T13:23:53;2.27;;;1.40;;
3975;SDS011;2002;48.812;9.180;2023-07-08T13:26:20;2.10;;;1.90;;
3975;SDS011;2002;48.812;9.180;2023-07-08T13:28:47;3.10;;;1.63;;
3975;SDS011;2002;48.812;9.180;2023-07-08T13:33:52;1.90;;;1.43;;
3975;SDS011;2002;48.812;9.180;2023-07-08T13:36:21;2.70;;;1.00;;
3975;SDS011;2002;48.812;9.180;2023-07-08T13:38:56;1.80;;;1.70;;
3975;SDS011;2002;48.812;9.180;2023-07-08T13:41:23;2.97;;;1.50;;
3975;SDS011;2002;48.812;9.180;2023-07-08T13:43:49;2.50;;;1.63;;
3975;SDS011;2002;48.812;9.180;2023-07-08T13:49:01;1.40;;;1.17;;
3975;SDS011;2002;48.812;9.180;2023-07-08T13:51:35;2.00;;;1.60;;
3975;SDS011;2002;48.812;9.180;2023-07-08T13:54:07;1.77;;;1.57;;
3975;SDS011;2002;48.812;9.180;2023-07-08T13:56:38;2.00;;;1.50;;
3975;SDS011;2002;48.812;9.180;2023-07-08T13:59:10;2.20;;;1.70;;
3975;SDS011;2002;48.812;9.180;2023-07-08T14:01:42;2.00;;;1.73;;
3975;SDS011;2002;48.812;9.180;2023-07-08T14:04:10;2.07;;;1.80;;
3975;SDS011;2002;48.812;9.180;2023-07-08T14:06:39;2.03;;;1.93;;
3975;SDS011;2002;48.812;9.180;2023-07-08T14:09:12;2.93;;;1.60;;
3975;SDS011;2002;48.812;9.180;2023-07-08T14:11:38;1.50;;;1.13;;
3975;SDS011;2002;48.812;9.180;2023-07-08T14:14:04;3.10;;;1.40;;
3975;SDS011;2002;48.812;9.180;2023-07-08T14:16:30;3.20;;;1.67;;
3975;SDS011;2002;48.812;9.180;2023-07-08T14:18:59;3.20;;;1.90;;
3975;SDS011;2002;48.812;9.180;2023-07-08T14:21:28;2.10;;;1.50;;
3975;SDS011;2002;48.812;9.180;2023-07-08T14:23:54;2.60;;;1.53;;
3975;SDS011;2002;48.812;9.180;2023-07-08T14:26:20;1.93;;;1.50;;
3975;SDS011;2002;48.812;9.180;2023-07-08T14:28:45;2.50;;;1.50;;
3975;SDS011;2002;48.812;9.180;2023-07-08T14:31:12;2.20;;;1.60;;
3975;SDS011;2002;48.812;9.180;2023-07-08T14:33:39;2.50;;;1.23;;
3975;SDS011;2002;48.812;9.180;2023-07-08T14:36:09;3.30;;;2.10;;
3975;SDS011;2002;48.812;9.180;2023-07-08T14:38:35;1.77;;;1.37;;
3975;SDS011;2002;48.812;9.180;2023-07-08T14:41:02;3.93;;;1.67;;
3975;SDS011;2002;48.812;9.180;2023-07-08T14:43:29;4.90;;;1.70;;
3975;SDS011;2002;48.812;9.180;2023-07-08T14:45:57;2.23;;;1.40;;
3975;SDS011;2002;48.812;9.180;2023-07-08T14:48:30;2.90;;;1.40;;
3975;SDS011;2002;48.812;9.180;2023-07-08T14:50:57;1.30;;;1.10;;
3975;SDS011;2002;48.812;9.180;2023-07-08T14:53:24;1.77;;;1.53;;
3975;SDS011;2002;48.812;9.180;2023-07-08T14:55:53;2.33;;;1.43;;
3975;SDS011;2002;48.812;9.180;2023-07-08T14:58:23;2.73;;;1.77;;
3975;SDS011;2002;48.812;9.180;2023-07-08T15:00:53;3.30;;;1.60;;
3975;SDS011;2002;48.812;9.180;2023-07-08T15:03:21;2.40;;;1.37;;
3975;SDS011;2002;48.812;9.180;2023-07-08T15:05:47;0.90;;;0.90;;
3975;SDS011;2002;48.812;9.180;2023-07-08T15:08:13;1.60;;;1.23;;
3975;SDS011;2002;48.812;9.180;2023-07-08T15:10:38;2.13;;;1.77;;
3975;SDS011;2002;48.812;9.180;2023-07-08T15:13:09;1.60;;;1.20;;
3975;SDS011;2002;48.812;9.180;2023-07-08T15:15:35;1.63;;;1.43;;
3975;SDS011;2002;48.812;9.180;2023-07-08T15:18:01;2.03;;;1.00;;
3975;SDS011;2002;48.812;9.180;2023-07-08T15:20:34;2.07;;;1.30;;
3975;SDS011;2002;48.812;9.180;2023-07-08T15:23:00;2.10;;;1.30;;
3975;SDS011;2002;48.812;9.180;2023-07-08T15:25:26;1.73;;;1.00;;
3975;SDS011;2002;48.812;9.180;2023-07-08T15:27:52;2.00;;;1.80;;
3975;SDS011;2002;48.812;9.180;2023-07-08T15:30:20;2.20;;;1.33;;
3975;SDS011;2002;48.812;9.180;2023-07-08T15:32:50;2.20;;;1.40;;
3975;SDS011;2002;48.812;9.180;2023-07-08T15:35:17;2.73;;;1.50;;
3975;SDS011;2002;48.812;9.180;2023-07-08T15:37:44;1.63;;;1.23;;
3975;SDS011;2002;48.812;9.180;2023-07-08T15:40:15;4.40;;;1.70;;
3975;SDS011;2002;48.812;9.180;2023-07-08T15:42:44;3.90;;;2.27;;
3975;SDS011;2002;48.812;9.180;2023-07-08T15:47:40;3.90;;;1.50;;
3975;SDS011;2002;48.812;9.180;2023-07-08T15:50:10;3.00;;;1.77;;
3975;SDS011;2002;48.812;9.180;2023-07-08T15:52:37;1.70;;;1.60;;
3975;SDS011;2002;48.812;9.180;2023-07-08T15:55:02;4.37;;;1.60;;
3975;SDS011;2002;48.812;9.180;2023-07-08T15:57:28;2.60;;;1.90;;
3975;SDS011;2002;48.812;9.180;2023-07-08T15:59:54;3.33;;;1.53;;
3975;SDS011;2002;48.812;9.180;2023-07-08T16:02:23;2.90;;;1.63;;
3975;SDS011;2002;48.812;9.180;2023-07-08T16:04:51;1.77;;;1.67;;
3975;SDS011;2002;48.812;9.180;2023-07-08T16:07:17;2.10;;;1.30;;
3975;SDS011;2002;48.812;9.180;2023-07-08T16:09:43;1.90;;;1.50;;
3975;SDS011;2002;48.812;9.180;2023-07-08T16:12:08;4.80;;;1.40;;
3975;SDS011;2002;48.812;9.180;2023-07-08T16:14:38;2.47;;;1.57;;